createdAt,value
2018-07-25T00:00:15.067Z,22.09
2018-07-25T00:02:42.817Z,22.19
2018-07-25T00:05:10.655Z,22.13
2018-07-25T00:07:38.521Z,22.19
2018-07-25T00:10:08.547Z,22.11
2018-07-25T00:12:36.412Z,22.07
2018-07-25T00:15:04.656Z,21.97
2018-07-25T00:17:32.491Z,21.93
2018-07-25T00:20:00.295Z,22.01
2018-07-25T00:22:28.231Z,22.06
2018-07-25T00:24:56.067Z,22.01
2018-07-25T00:27:23.879Z,21.94
2018-07-25T00:29:51.723Z,21.98
2018-07-25T00:32:19.540Z,22.00
2018-07-25T00:34:47.358Z,21.96
2018-07-25T00:37:15.115Z,22.03
2018-07-25T00:39:42.951Z,21.90
2018-07-25T00:42:10.775Z,21.78
2018-07-25T00:44:38.628Z,21.72
2018-07-25T00:47:06.371Z,21.67
2018-07-25T00:49:34.187Z,21.66
2018-07-25T00:52:01.964Z,21.62
2018-07-25T00:54:29.799Z,21.59
2018-07-25T00:56:57.583Z,21.55
2018-07-25T00:59:25.390Z,21.47
2018-07-25T01:01:53.188Z,21.43
2018-07-25T01:04:21.026Z,21.40
2018-07-25T01:06:48.779Z,21.42
2018-07-25T01:09:16.603Z,21.51
2018-07-25T01:11:44.427Z,21.43
2018-07-25T01:14:12.247Z,21.40
2018-07-25T01:16:40.028Z,21.39
2018-07-25T01:19:07.804Z,21.12
2018-07-25T01:21:35.606Z,21.18
2018-07-25T01:24:03.488Z,21.09
2018-07-25T01:26:31.291Z,21.08
2018-07-25T01:28:59.075Z,21.19
2018-07-25T01:31:26.912Z,21.14
2018-07-25T01:33:54.731Z,21.11
2018-07-25T01:36:22.535Z,21.01
2018-07-25T01:38:50.355Z,21.11
2018-07-25T01:41:18.159Z,20.97
2018-07-25T01:43:45.937Z,20.95
2018-07-25T01:46:13.683Z,20.93
2018-07-25T01:48:41.459Z,20.84
2018-07-25T01:51:09.295Z,20.84
2018-07-25T01:53:37.093Z,20.80
2018-07-25T01:56:05.296Z,20.84
2018-07-25T01:58:33.108Z,20.95
2018-07-25T02:01:00.887Z,20.84
2018-07-25T02:03:28.683Z,20.80
2018-07-25T02:05:56.458Z,20.57
2018-07-25T02:08:24.263Z,20.56
2018-07-25T02:10:52.071Z,20.43
2018-07-25T02:13:19.863Z,20.40
2018-07-25T02:15:47.695Z,20.47
2018-07-25T02:18:15.511Z,20.43
2018-07-25T02:20:43.376Z,20.33
2018-07-25T02:23:11.162Z,20.49
2018-07-25T02:25:38.953Z,20.50
2018-07-25T02:28:06.763Z,20.42
2018-07-25T02:30:34.536Z,20.36
2018-07-25T02:33:02.369Z,20.31
2018-07-25T02:35:30.175Z,20.26
2018-07-25T02:37:57.995Z,20.11
2018-07-25T02:40:25.807Z,20.03
2018-07-25T02:42:53.892Z,20.01
2018-07-25T02:45:21.647Z,19.90
2018-07-25T02:47:49.455Z,20.17
2018-07-25T02:50:17.227Z,20.03
2018-07-25T02:52:45.024Z,20.04
2018-07-25T02:55:12.732Z,20.07
2018-07-25T02:57:40.506Z,19.93
2018-07-25T03:00:08.460Z,19.93
2018-07-25T03:02:36.263Z,19.84
2018-07-25T03:05:04.244Z,19.85
2018-07-25T03:07:32.187Z,19.64
2018-07-25T03:10:00.004Z,19.61
2018-07-25T03:12:27.827Z,19.77
2018-07-25T03:14:55.579Z,19.69
2018-07-25T03:17:23.387Z,19.67
2018-07-25T03:19:51.211Z,19.62
2018-07-25T03:22:19.036Z,19.54
2018-07-25T03:24:46.779Z,19.54
2018-07-25T03:27:14.597Z,19.60
2018-07-25T03:29:42.386Z,19.54
2018-07-25T03:32:10.215Z,19.38
2018-07-25T03:34:37.991Z,19.32
2018-07-25T03:37:05.792Z,19.41
2018-07-25T03:39:33.538Z,19.43
2018-07-25T03:42:01.288Z,19.32
2018-07-25T03:44:29.103Z,19.24
2018-07-25T03:46:56.847Z,19.17
2018-07-25T03:49:24.561Z,19.30
2018-07-25T03:51:52.403Z,19.35
2018-07-25T03:54:20.211Z,19.30
2018-07-25T03:56:47.950Z,19.34
2018-07-25T03:59:15.722Z,19.32
2018-07-25T04:01:43.567Z,19.30
2018-07-25T04:04:11.405Z,19.26
2018-07-25T04:06:39.235Z,19.28
2018-07-25T04:09:08.432Z,19.25
2018-07-25T04:11:36.423Z,19.30
2018-07-25T04:14:04.282Z,19.34
2018-07-25T04:16:32.070Z,19.36
2018-07-25T04:18:59.917Z,19.39
2018-07-25T04:21:27.667Z,19.44
2018-07-25T04:23:55.448Z,19.54
2018-07-25T04:26:23.311Z,19.54
2018-07-25T04:28:51.139Z,19.56
2018-07-25T04:31:18.887Z,19.60
2018-07-25T04:33:46.732Z,19.66
2018-07-25T04:36:14.503Z,19.64
2018-07-25T04:38:42.287Z,19.68
2018-07-25T04:41:10.055Z,19.67
2018-07-25T04:43:37.879Z,19.68
2018-07-25T04:46:05.742Z,19.71
2018-07-25T04:48:33.504Z,19.79
2018-07-25T04:51:01.268Z,19.83
2018-07-25T04:53:29.083Z,19.84
2018-07-25T04:55:57.111Z,19.92
2018-07-25T04:58:25.775Z,19.98
2018-07-25T05:00:53.630Z,20.00
2018-07-25T05:03:21.486Z,20.10
2018-07-25T05:05:49.251Z,20.12
2018-07-25T05:08:17.096Z,20.26
2018-07-25T05:10:44.838Z,20.35
2018-07-25T05:13:12.627Z,20.54
2018-07-25T05:15:40.499Z,20.82
2018-07-25T05:18:08.375Z,21.24
2018-07-25T05:20:36.147Z,21.71
2018-07-25T05:23:03.924Z,22.13
2018-07-25T05:25:31.755Z,22.55
2018-07-25T05:27:59.544Z,23.08
2018-07-25T05:30:27.456Z,23.54
2018-07-25T05:32:55.243Z,23.83
2018-07-25T05:35:23.011Z,24.38
2018-07-25T05:37:50.808Z,25.01
2018-07-25T05:40:18.786Z,25.58
2018-07-25T05:42:46.607Z,25.82
2018-07-25T05:45:14.407Z,26.01
2018-07-25T05:47:42.211Z,26.00
2018-07-25T05:50:10.084Z,25.95
2018-07-25T05:52:37.904Z,25.91
2018-07-25T05:55:05.809Z,25.91
2018-07-25T05:57:34.236Z,26.23
2018-07-25T06:00:02.025Z,26.43
2018-07-25T06:02:29.856Z,26.75
2018-07-25T06:04:57.666Z,26.86
2018-07-25T06:07:25.502Z,26.87
2018-07-25T06:09:53.323Z,26.82
2018-07-25T06:12:21.120Z,26.90
2018-07-25T06:14:48.909Z,27.05
2018-07-25T06:17:16.673Z,26.94
2018-07-25T06:19:44.450Z,26.90
2018-07-25T06:22:12.311Z,27.04
2018-07-25T06:24:40.117Z,27.20
2018-07-25T06:27:08.735Z,27.45
2018-07-25T06:29:36.492Z,27.74
2018-07-25T06:32:04.303Z,27.90
2018-07-25T06:34:32.123Z,28.16
2018-07-25T06:36:59.981Z,28.29
2018-07-25T06:39:27.784Z,28.39
2018-07-25T06:41:55.568Z,28.41
2018-07-25T06:44:23.351Z,28.49
2018-07-25T06:46:51.079Z,28.41
2018-07-25T06:49:18.883Z,28.36
2018-07-25T06:51:46.657Z,28.42
2018-07-25T06:54:14.411Z,28.54
2018-07-25T06:56:42.126Z,28.49
2018-07-25T06:59:09.881Z,28.70
2018-07-25T07:01:37.655Z,28.92
2018-07-25T07:04:05.581Z,28.99
2018-07-25T07:06:33.384Z,29.20
2018-07-25T07:09:01.272Z,29.26
2018-07-25T07:11:29.413Z,29.38
2018-07-25T07:13:57.410Z,29.47
2018-07-25T07:16:25.288Z,29.58
2018-07-25T07:18:53.107Z,29.79
2018-07-25T07:21:20.955Z,29.91
2018-07-25T07:23:55.637Z,30.03
2018-07-25T07:26:26.187Z,30.14
2018-07-25T07:28:57.113Z,30.22
2018-07-25T07:31:28.099Z,30.22
2018-07-25T07:33:55.772Z,30.37
2018-07-25T07:36:23.577Z,30.35
2018-07-25T07:38:51.337Z,30.51
2018-07-25T07:41:19.155Z,30.64
2018-07-25T07:43:46.881Z,30.79
2018-07-25T07:46:14.735Z,30.90
2018-07-25T07:48:42.512Z,31.05
2018-07-25T07:51:10.351Z,31.17
2018-07-25T07:53:38.202Z,31.36
2018-07-25T07:56:05.964Z,31.34
2018-07-25T07:58:33.826Z,31.49
2018-07-25T08:01:01.716Z,31.53
2018-07-25T08:03:29.564Z,31.49
2018-07-25T08:05:57.478Z,31.50
2018-07-25T08:08:25.311Z,31.48
2018-07-25T08:10:53.140Z,31.40
2018-07-25T08:13:23.244Z,31.46
2018-07-25T08:15:50.987Z,31.32
2018-07-25T08:18:18.854Z,31.18
2018-07-25T08:20:47.374Z,31.22
2018-07-25T08:23:19.601Z,31.18
2018-07-25T08:25:47.945Z,31.23
2018-07-25T08:28:15.732Z,31.23
2018-07-25T08:30:43.566Z,31.23
2018-07-25T08:33:11.463Z,31.24
2018-07-25T08:35:39.359Z,31.22
2018-07-25T08:38:07.189Z,31.24
2018-07-25T08:40:34.927Z,31.20
2018-07-25T08:43:02.659Z,31.28
2018-07-25T08:45:30.507Z,31.20
2018-07-25T08:47:59.411Z,31.27
2018-07-25T08:50:27.263Z,31.36
2018-07-25T08:52:55.055Z,31.58
2018-07-25T08:55:22.824Z,31.76
2018-07-25T08:57:50.790Z,31.86
2018-07-25T09:00:18.552Z,32.02
2018-07-25T09:02:46.387Z,32.01
2018-07-25T09:05:14.127Z,32.10
2018-07-25T09:07:41.979Z,32.04
2018-07-25T09:10:09.817Z,32.06
2018-07-25T09:12:37.672Z,32.04
2018-07-25T09:15:05.795Z,31.95
2018-07-25T09:17:33.563Z,31.99
2018-07-25T09:20:01.320Z,31.95
2018-07-25T09:22:29.114Z,32.10
2018-07-25T09:24:56.939Z,32.09
2018-07-25T09:27:24.695Z,32.11
2018-07-25T09:29:52.463Z,32.10
2018-07-25T09:32:20.235Z,32.20
2018-07-25T09:34:48.003Z,32.17
2018-07-25T09:37:15.776Z,32.27
2018-07-25T09:39:43.587Z,32.29
2018-07-25T09:42:11.381Z,32.33
2018-07-25T09:44:39.177Z,32.39
2018-07-25T09:47:07.208Z,32.43
2018-07-25T09:49:34.964Z,32.56
2018-07-25T09:52:02.806Z,32.59
2018-07-25T09:54:30.569Z,32.69
2018-07-25T09:56:58.323Z,33.16
2018-07-25T09:59:26.178Z,33.67
2018-07-25T10:01:54.028Z,34.28
2018-07-25T10:04:21.828Z,34.99
2018-07-25T10:06:49.584Z,36.26
2018-07-25T10:09:17.407Z,36.33
2018-07-25T10:11:45.231Z,36.58
2018-07-25T10:14:13.047Z,37.06
2018-07-25T10:16:40.878Z,36.95
2018-07-25T10:19:08.679Z,37.20
2018-07-25T10:21:36.418Z,36.93
2018-07-25T10:24:04.540Z,37.11
2018-07-25T10:26:32.332Z,37.33
2018-07-25T10:29:00.058Z,37.27
2018-07-25T10:31:27.772Z,37.26
2018-07-25T10:33:55.584Z,37.94
2018-07-25T10:36:23.372Z,38.42
2018-07-25T10:38:51.107Z,39.12
2018-07-25T10:41:18.887Z,39.99
2018-07-25T10:43:46.739Z,40.61
2018-07-25T10:46:14.484Z,41.03
2018-07-25T10:48:42.293Z,41.39
2018-07-25T10:51:10.124Z,42.25
2018-07-25T10:53:37.895Z,42.84
2018-07-25T10:56:05.758Z,43.26
2018-07-25T10:58:33.555Z,44.22
2018-07-25T11:01:01.311Z,44.62
2018-07-25T11:03:29.808Z,44.80
2018-07-25T11:05:57.666Z,45.47
2018-07-25T11:08:25.511Z,46.07
2018-07-25T11:10:53.303Z,46.12
2018-07-25T11:13:21.106Z,46.51
2018-07-25T11:15:48.891Z,46.38
2018-07-25T11:18:16.952Z,46.78
2018-07-25T11:20:44.777Z,47.24
2018-07-25T11:23:12.745Z,47.25
2018-07-25T11:25:40.503Z,47.52
2018-07-25T11:28:08.351Z,47.72
2018-07-25T11:30:36.109Z,48.06
2018-07-25T11:33:03.952Z,48.07
2018-07-25T11:35:31.770Z,48.20
2018-07-25T11:37:59.552Z,48.18
2018-07-25T11:40:27.380Z,48.31
2018-07-25T11:42:55.180Z,48.00
2018-07-25T11:45:23.105Z,48.26
2018-07-25T11:47:50.951Z,48.82
2018-07-25T11:50:18.830Z,48.77
2018-07-25T11:52:46.619Z,48.51
2018-07-25T11:55:14.379Z,48.92
2018-07-25T11:57:42.166Z,48.69
2018-07-25T12:00:09.995Z,48.34
2018-07-25T12:02:37.828Z,48.09
2018-07-25T12:05:05.903Z,48.10
2018-07-25T12:07:33.807Z,47.87
2018-07-25T12:10:01.691Z,48.19
2018-07-25T12:12:29.468Z,47.98
2018-07-25T12:14:57.254Z,47.70
2018-07-25T12:17:25.106Z,48.13
2018-07-25T12:19:52.966Z,48.22
2018-07-25T12:22:20.751Z,48.26
2018-07-25T12:24:48.594Z,48.02
2018-07-25T12:27:16.384Z,47.75
2018-07-25T12:29:44.103Z,47.78
2018-07-25T12:32:13.167Z,47.53
2018-07-25T12:34:40.885Z,47.35
2018-07-25T12:37:08.644Z,47.49
2018-07-25T12:39:36.419Z,47.70
2018-07-25T12:42:04.238Z,47.42
2018-07-25T12:44:32.021Z,47.58
2018-07-25T12:46:59.840Z,47.26
2018-07-25T12:49:27.620Z,47.16
2018-07-25T12:51:55.515Z,46.93
2018-07-25T12:54:23.411Z,46.89
2018-07-25T12:56:51.245Z,46.67
2018-07-25T12:59:19.032Z,46.77
2018-07-25T13:01:46.819Z,46.68
2018-07-25T13:04:14.539Z,46.74
2018-07-25T13:06:42.366Z,46.75
2018-07-25T13:09:11.247Z,46.48
2018-07-25T13:11:38.979Z,45.84
2018-07-25T13:14:06.992Z,45.85
2018-07-25T13:16:34.946Z,45.90
2018-07-25T13:19:02.947Z,45.43
2018-07-25T13:21:30.760Z,45.28
2018-07-25T13:23:58.656Z,45.38
2018-07-25T13:26:26.443Z,45.37
2018-07-25T13:28:54.207Z,45.19
2018-07-25T13:31:22.070Z,44.75
2018-07-25T13:33:49.883Z,44.71
2018-07-25T13:36:17.761Z,44.64
2018-07-25T13:38:45.577Z,44.60
2018-07-25T13:41:13.410Z,44.43
2018-07-25T13:43:41.139Z,44.14
2018-07-25T13:46:08.999Z,44.17
2018-07-25T13:48:36.775Z,43.98
2018-07-25T13:51:05.661Z,43.79
2018-07-25T13:53:35.932Z,43.67
2018-07-25T13:56:08.190Z,42.79
2018-07-25T13:58:36.038Z,42.73
2018-07-25T14:01:04.686Z,42.31
2018-07-25T14:03:32.483Z,42.16
2018-07-25T14:06:00.208Z,41.41
2018-07-25T14:08:28.220Z,40.97
2018-07-25T14:10:56.031Z,41.13
2018-07-25T14:13:23.871Z,40.98
2018-07-25T14:15:51.623Z,40.80
2018-07-25T14:18:19.451Z,40.59
2018-07-25T14:20:47.797Z,40.50
2018-07-25T14:23:15.875Z,40.43
2018-07-25T14:25:44.176Z,40.54
2018-07-25T14:28:12.396Z,40.31
2018-07-25T14:30:46.307Z,40.11
2018-07-25T14:33:15.652Z,40.06
2018-07-25T14:35:43.510Z,39.77
2018-07-25T14:38:16.433Z,39.56
2018-07-25T14:40:47.190Z,39.76
2018-07-25T14:43:18.122Z,39.44
2018-07-25T14:45:46.980Z,39.38
2018-07-25T14:48:14.893Z,39.27
2018-07-25T14:50:43.007Z,39.15
2018-07-25T14:53:10.905Z,39.05
2018-07-25T14:55:38.747Z,38.76
2018-07-25T14:58:06.824Z,38.70
2018-07-25T15:00:34.651Z,38.53
2018-07-25T15:03:02.510Z,38.18
2018-07-25T15:05:30.359Z,38.12
2018-07-25T15:07:58.155Z,37.94
2018-07-25T15:10:26.028Z,37.72
2018-07-25T15:12:56.078Z,37.73
2018-07-25T15:15:28.656Z,37.77
2018-07-25T15:17:56.886Z,37.56
2018-07-25T15:20:32.440Z,37.61
2018-07-25T15:23:00.407Z,37.57
2018-07-25T15:25:28.201Z,37.41
2018-07-25T15:27:56.148Z,37.42
2018-07-25T15:30:27.429Z,37.41
2018-07-25T15:32:55.323Z,37.35
2018-07-25T15:35:27.287Z,37.43
2018-07-25T15:38:05.017Z,37.43
2018-07-25T15:40:33.160Z,37.43
2018-07-25T15:43:12.228Z,37.37
2018-07-25T15:45:41.919Z,37.34
2018-07-25T15:48:09.847Z,37.24
2018-07-25T15:50:37.687Z,37.22
2018-07-25T15:53:05.428Z,37.21
2018-07-25T15:55:33.275Z,37.22
2018-07-25T15:58:01.027Z,37.26
2018-07-25T16:00:30.289Z,37.17
2018-07-25T16:02:58.139Z,37.17
2018-07-25T16:05:26.043Z,37.24
2018-07-25T16:07:53.779Z,37.21
2018-07-25T16:10:21.559Z,37.27
2018-07-25T16:12:49.367Z,37.22
2018-07-25T16:15:17.142Z,37.38
2018-07-25T16:17:44.895Z,37.49
2018-07-25T16:20:12.615Z,37.50
2018-07-25T16:22:40.460Z,37.39
2018-07-25T16:25:08.283Z,37.51
2018-07-25T16:27:36.091Z,37.43
2018-07-25T16:30:04.294Z,37.38
2018-07-25T16:32:32.133Z,37.17
2018-07-25T16:34:59.940Z,37.13
2018-07-25T16:37:27.719Z,36.90
2018-07-25T16:39:55.579Z,36.75
2018-07-25T16:42:23.391Z,36.65
2018-07-25T16:44:51.257Z,36.57
2018-07-25T16:47:19.079Z,36.45
2018-07-25T16:49:46.858Z,36.33
2018-07-25T16:52:14.707Z,36.31
2018-07-25T16:54:42.631Z,35.98
2018-07-25T16:57:10.468Z,35.58
2018-07-25T16:59:38.251Z,35.64
2018-07-25T17:02:06.092Z,35.51
2018-07-25T17:04:33.871Z,35.32
2018-07-25T17:07:01.683Z,35.27
2018-07-25T17:09:29.476Z,35.14
2018-07-25T17:11:57.212Z,35.05
2018-07-25T17:14:25.058Z,34.95
2018-07-25T17:16:52.827Z,34.76
2018-07-25T17:19:20.615Z,34.71
2018-07-25T17:21:48.411Z,34.33
2018-07-25T17:24:16.179Z,34.35
2018-07-25T17:26:43.970Z,34.31
2018-07-25T17:29:11.835Z,34.14
2018-07-25T17:31:39.667Z,34.25
2018-07-25T17:34:07.463Z,34.26
2018-07-25T17:36:35.296Z,34.11
2018-07-25T17:39:05.512Z,33.79
2018-07-25T17:41:33.365Z,33.80
2018-07-25T17:44:01.129Z,33.70
2018-07-25T17:46:28.871Z,33.61
2018-07-25T17:48:56.707Z,33.46
2018-07-25T17:51:24.499Z,33.24
2018-07-25T17:53:52.306Z,33.19
2018-07-25T17:56:20.147Z,32.86
2018-07-25T17:58:47.964Z,32.54
2018-07-25T18:01:15.808Z,32.17
2018-07-25T18:03:43.756Z,31.98
2018-07-25T18:06:11.604Z,32.01
2018-07-25T18:08:39.463Z,31.89
2018-07-25T18:11:07.211Z,31.82
2018-07-25T18:13:40.603Z,31.34
2018-07-25T18:16:08.420Z,31.09
2018-07-25T18:18:36.255Z,30.95
2018-07-25T18:21:04.112Z,30.95
2018-07-25T18:23:32.020Z,30.64
2018-07-25T18:25:59.824Z,30.68
2018-07-25T18:28:27.591Z,30.35
2018-07-25T18:30:55.427Z,30.35
2018-07-25T18:33:23.246Z,30.26
2018-07-25T18:35:51.042Z,30.21
2018-07-25T18:38:19.035Z,30.19
2018-07-25T18:40:46.846Z,30.08
2018-07-25T18:43:14.671Z,30.08
2018-07-25T18:45:42.519Z,30.00
2018-07-25T18:48:10.286Z,29.81
2018-07-25T18:50:37.993Z,29.79
2018-07-25T18:53:06.018Z,29.65
2018-07-25T18:55:33.930Z,29.66
2018-07-25T18:58:01.747Z,29.57
2018-07-25T19:00:29.488Z,29.47
2018-07-25T19:02:57.309Z,29.45
2018-07-25T19:05:30.848Z,29.35
2018-07-25T19:07:59.847Z,29.23
2018-07-25T19:10:27.667Z,29.09
2018-07-25T19:12:55.802Z,29.15
2018-07-25T19:15:30.841Z,29.06
2018-07-25T19:17:59.231Z,28.90
2018-07-25T19:20:27.074Z,28.83
2018-07-25T19:22:54.802Z,28.68
2018-07-25T19:25:22.557Z,28.62
2018-07-25T19:27:50.691Z,28.45
2018-07-25T19:30:18.535Z,28.32
2018-07-25T19:32:46.307Z,28.20
2018-07-25T19:35:14.203Z,28.09
2018-07-25T19:37:42.271Z,27.97
2018-07-25T19:40:10.063Z,27.99
2018-07-25T19:42:37.887Z,27.96
2018-07-25T19:45:05.807Z,27.92
2018-07-25T19:47:33.638Z,27.90
2018-07-25T19:50:01.460Z,27.82
2018-07-25T19:52:29.277Z,27.84
2018-07-25T19:54:57.055Z,27.82
2018-07-25T19:57:24.895Z,27.79
2018-07-25T19:59:52.683Z,27.78
2018-07-25T20:02:20.494Z,27.86
2018-07-25T20:04:48.271Z,27.78
2018-07-25T20:07:16.123Z,27.64
2018-07-25T20:09:43.958Z,27.67
2018-07-25T20:12:11.704Z,27.68
2018-07-25T20:14:45.109Z,27.64
2018-07-25T20:17:13.628Z,27.47
2018-07-25T20:19:41.456Z,27.47
2018-07-25T20:22:09.270Z,27.46
2018-07-25T20:24:37.054Z,27.41
2018-07-25T20:27:04.991Z,27.36
2018-07-25T20:29:32.847Z,27.30
2018-07-25T20:32:00.586Z,27.28
2018-07-25T20:34:28.471Z,27.27
2018-07-25T20:36:56.295Z,27.32
2018-07-25T20:39:24.127Z,27.18
2018-07-25T20:41:51.963Z,27.28
2018-07-25T20:44:19.754Z,27.18
2018-07-25T20:46:47.507Z,27.11
2018-07-25T20:49:15.299Z,27.12
2018-07-25T20:51:43.089Z,27.07
2018-07-25T20:54:10.928Z,27.14
2018-07-25T20:56:38.735Z,27.08
2018-07-25T20:59:06.520Z,27.06
2018-07-25T21:01:34.351Z,27.12
2018-07-25T21:04:02.260Z,27.09
2018-07-25T21:06:30.024Z,27.10
2018-07-25T21:08:57.819Z,27.07
2018-07-25T21:11:25.624Z,27.06
2018-07-25T21:13:53.347Z,27.05
2018-07-25T21:16:21.107Z,27.00
2018-07-25T21:18:48.952Z,26.95
2018-07-25T21:21:16.796Z,27.08
2018-07-25T21:23:44.600Z,27.01
2018-07-25T21:26:12.379Z,27.01
2018-07-25T21:28:40.144Z,26.86
2018-07-25T21:31:07.976Z,26.84
2018-07-25T21:33:35.740Z,26.79
2018-07-25T21:36:03.540Z,26.75
2018-07-25T21:38:31.555Z,26.73
2018-07-25T21:40:59.359Z,26.79
2018-07-25T21:43:27.175Z,26.81
2018-07-25T21:45:54.973Z,26.67
2018-07-25T21:48:22.809Z,26.58
2018-07-25T21:50:50.753Z,26.49
2018-07-25T21:53:18.550Z,26.52
2018-07-25T21:55:46.368Z,26.33
2018-07-25T21:58:14.131Z,26.31
2018-07-25T22:00:48.937Z,26.34
2018-07-25T22:03:17.015Z,26.24
2018-07-25T22:05:44.823Z,26.23
2018-07-25T22:08:12.611Z,26.25
2018-07-25T22:10:40.404Z,26.25
2018-07-25T22:13:08.336Z,26.21
2018-07-25T22:15:36.124Z,26.11
2018-07-25T22:18:04.119Z,26.02
2018-07-25T22:20:31.901Z,25.91
2018-07-25T22:22:59.687Z,25.84
2018-07-25T22:25:27.462Z,25.86
2018-07-25T22:27:55.324Z,25.74
2018-07-25T22:30:23.275Z,25.67
2018-07-25T22:32:51.123Z,25.69
2018-07-25T22:35:18.931Z,25.69
2018-07-25T22:37:46.947Z,25.53
2018-07-25T22:40:14.844Z,25.52
2018-07-25T22:42:42.639Z,25.55
2018-07-25T22:45:10.451Z,25.42
2018-07-25T22:47:38.311Z,25.28
2018-07-25T22:50:06.332Z,25.22
2018-07-25T22:52:34.136Z,25.22
2018-07-25T22:55:01.982Z,25.20
2018-07-25T22:57:29.779Z,25.17
2018-07-25T22:59:57.818Z,25.13
2018-07-25T23:02:27.372Z,25.12
2018-07-25T23:04:55.174Z,25.11
2018-07-25T23:07:22.958Z,25.04
2018-07-25T23:09:50.748Z,24.95
2018-07-25T23:12:18.576Z,24.94
2018-07-25T23:14:46.320Z,24.97
2018-07-25T23:17:14.091Z,24.98
2018-07-25T23:19:41.944Z,24.98
2018-07-25T23:22:09.814Z,25.01
2018-07-25T23:24:37.779Z,24.98
2018-07-25T23:27:05.575Z,24.82
2018-07-25T23:29:36.314Z,24.87
2018-07-25T23:32:10.595Z,24.77
2018-07-25T23:34:38.395Z,24.70
2018-07-25T23:37:06.467Z,24.64
2018-07-25T23:39:34.339Z,24.66
2018-07-25T23:42:02.093Z,24.69
2018-07-25T23:44:29.863Z,24.60
2018-07-25T23:46:57.839Z,24.63
2018-07-25T23:49:25.667Z,24.75
2018-07-25T23:51:54.023Z,24.68
2018-07-25T23:54:21.940Z,24.61
2018-07-25T23:56:49.868Z,24.53
2018-07-25T23:59:17.703Z,24.50
